sensor_id;sensor_type;location;lat;lon;timestamp;temperature;humidity
21090;DHT22;10703;51.020;6.128;2023-08-21T00:00:54;18.10;99.90
21090;DHT22;10703;51.020;6.128;2023-08-21T00:03:22;18.00;99.90
21090;DHT22;10703;51.020;6.128;2023-08-21T00:05:48;17.90;99.90
21090;DHT22;10703;51.020;6.128;2023-08-21T00:08:15;17.80;99.90
21090;DHT22;10703;51.020;6.128;2023-08-21T00:10:42;17.80;99.90
21090;DHT22;10703;51.020;6.128;2023-08-21T00:13:08;17.80;99.90
21090;DHT22;10703;51.020;6.128;2023-08-21T00:15:37;17.80;99.90
21090;DHT22;10703;51.020;6.128;2023-08-21T00:18:05;17.80;99.90
21090;DHT22;10703;51.020;6.128;2023-08-21T00:20:31;17.70;99.90
21090;DHT22;10703;51.020;6.128;2023-08-21T00:22:58;17.70;99.90
21090;DHT22;10703;51.020;6.128;2023-08-21T00:25:25;17.70;99.90
21090;DHT22;10703;51.020;6.128;2023-08-21T00:27:51;17.70;99.90
21090;DHT22;10703;51.020;6.128;2023-08-21T00:30:18;17.70;99.90
21090;DHT22;10703;51.020;6.128;2023-08-21T00:32:45;17.70;99.90
21090;DHT22;10703;51.020;6.128;2023-08-21T00:35:12;17.80;99.90
21090;DHT22;10703;51.020;6.128;2023-08-21T00:37:38;17.70;99.90
21090;DHT22;10703;51.020;6.128;2023-08-21T00:40:05;17.70;99.90
21090;DHT22;10703;51.020;6.128;2023-08-21T00:42:32;17.70;99.90
21090;DHT22;10703;51.020;6.128;2023-08-21T00:44:59;17.80;99.90
21090;DHT22;10703;51.020;6.128;2023-08-21T00:47:26;17.70;99.90
21090;DHT22;10703;51.020;6.128;2023-08-21T00:49:52;17.70;99.90
21090;DHT22;10703;51.020;6.128;2023-08-21T00:52:19;17.70;99.90
21090;DHT22;10703;51.020;6.128;2023-08-21T00:54:46;17.60;99.90
21090;DHT22;10703;51.020;6.128;2023-08-21T00:57:14;17.60;99.90
21090;DHT22;10703;51.020;6.128;2023-08-21T00:59:40;17.60;99.90
21090;DHT22;10703;51.020;6.128;2023-08-21T01:02:07;17.50;99.90
21090;DHT22;10703;51.020;6.128;2023-08-21T01:04:34;17.50;99.90
21090;DHT22;10703;51.020;6.128;2023-08-21T01:07:00;17.50;99.90
21090;DHT22;10703;51.020;6.128;2023-08-21T01:09:33;17.50;99.90
21090;DHT22;10703;51.020;6.128;2023-08-21T01:15:05;17.40;99.90
21090;DHT22;10703;51.020;6.128;2023-08-21T01:17:39;17.30;99.90
21090;DHT22;10703;51.020;6.128;2023-08-21T01:20:07;17.30;99.90
21090;DHT22;10703;51.020;6.128;2023-08-21T01:22:39;17.30;99.90
21090;DHT22;10703;51.020;6.128;2023-08-21T01:25:07;17.30;99.90
21090;DHT22;10703;51.020;6.128;2023-08-21T01:27:34;17.30;99.90
21090;DHT22;10703;51.020;6.128;2023-08-21T01:30:03;17.20;99.90
21090;DHT22;10703;51.020;6.128;2023-08-21T01:33:05;17.10;99.90
21090;DHT22;10703;51.020;6.128;2023-08-21T01:35:34;17.10;99.90
21090;DHT22;10703;51.020;6.128;2023-08-21T01:38:05;17.10;99.90
21090;DHT22;10703;51.020;6.128;2023-08-21T01:40:32;17.10;99.90
21090;DHT22;10703;51.020;6.128;2023-08-21T01:42:58;17.10;99.90
21090;DHT22;10703;51.020;6.128;2023-08-21T01:45:26;17.10;99.90
21090;DHT22;10703;51.020;6.128;2023-08-21T01:47:53;17.10;99.90
21090;DHT22;10703;51.020;6.128;2023-08-21T01:50:19;17.10;99.90
21090;DHT22;10703;51.020;6.128;2023-08-21T01:52:46;17.10;99.90
21090;DHT22;10703;51.020;6.128;2023-08-21T01:55:13;17.00;99.90
21090;DHT22;10703;51.020;6.128;2023-08-21T01:57:39;17.00;99.90
21090;DHT22;10703;51.020;6.128;2023-08-21T02:00:06;16.90;99.90
21090;DHT22;10703;51.020;6.128;2023-08-21T02:02:34;16.90;99.90
21090;DHT22;10703;51.020;6.128;2023-08-21T02:05:01;16.80;99.90
21090;DHT22;10703;51.020;6.128;2023-08-21T02:07:30;16.90;99.90
21090;DHT22;10703;51.020;6.128;2023-08-21T02:09:56;16.90;99.90
21090;DHT22;10703;51.020;6.128;2023-08-21T02:12:23;16.80;99.90
21090;DHT22;10703;51.020;6.128;2023-08-21T02:14:49;16.80;99.90
21090;DHT22;10703;51.020;6.128;2023-08-21T02:17:16;16.80;99.90
21090;DHT22;10703;51.020;6.128;2023-08-21T02:19:43;16.80;99.90
21090;DHT22;10703;51.020;6.128;2023-08-21T02:22:09;16.90;99.90
21090;DHT22;10703;51.020;6.128;2023-08-21T02:24:36;16.90;99.90
21090;DHT22;10703;51.020;6.128;2023-08-21T02:27:02;17.00;99.90
21090;DHT22;10703;51.020;6.128;2023-08-21T02:29:29;17.00;99.90
21090;DHT22;10703;51.020;6.128;2023-08-21T02:31:56;17.00;99.90
21090;DHT22;10703;51.020;6.128;2023-08-21T02:34:22;17.10;99.90
21090;DHT22;10703;51.020;6.128;2023-08-21T02:36:49;17.10;99.90
21090;DHT22;10703;51.020;6.128;2023-08-21T02:39:16;17.20;99.90
21090;DHT22;10703;51.020;6.128;2023-08-21T02:41:42;17.20;99.90
21090;DHT22;10703;51.020;6.128;2023-08-21T02:44:09;17.20;99.90
21090;DHT22;10703;51.020;6.128;2023-08-21T02:46:35;17.40;99.90
21090;DHT22;10703;51.020;6.128;2023-08-21T02:49:02;17.50;99.90
21090;DHT22;10703;51.020;6.128;2023-08-21T02:51:29;17.50;99.90
21090;DHT22;10703;51.020;6.128;2023-08-21T02:53:56;17.50;99.90
21090;DHT22;10703;51.020;6.128;2023-08-21T02:56:22;17.50;99.90
21090;DHT22;10703;51.020;6.128;2023-08-21T02:58:49;17.40;99.90
21090;DHT22;10703;51.020;6.128;2023-08-21T03:01:16;17.40;99.90
21090;DHT22;10703;51.020;6.128;2023-08-21T03:03:43;17.30;99.90
21090;DHT22;10703;51.020;6.128;2023-08-21T03:06:10;17.30;99.90
21090;DHT22;10703;51.020;6.128;2023-08-21T03:08:36;17.30;99.90
21090;DHT22;10703;51.020;6.128;2023-08-21T03:11:03;17.10;99.90
21090;DHT22;10703;51.020;6.128;2023-08-21T03:13:30;17.00;99.90
21090;DHT22;10703;51.020;6.128;2023-08-21T03:15:56;16.90;99.90
21090;DHT22;10703;51.020;6.128;2023-08-21T03:18:23;16.80;99.90
21090;DHT22;10703;51.020;6.128;2023-08-21T03:20:50;16.70;99.90
21090;DHT22;10703;51.020;6.128;2023-08-21T03:23:16;16.60;99.90
21090;DHT22;10703;51.020;6.128;2023-08-21T03:25:43;16.50;99.90
21090;DHT22;10703;51.020;6.128;2023-08-21T03:28:10;16.40;99.90
21090;DHT22;10703;51.020;6.128;2023-08-21T03:30:39;16.30;99.90
21090;DHT22;10703;51.020;6.128;2023-08-21T03:33:06;16.30;99.90
21090;DHT22;10703;51.020;6.128;2023-08-21T03:35:34;16.20;99.90
21090;DHT22;10703;51.020;6.128;2023-08-21T03:38:00;16.30;99.90
21090;DHT22;10703;51.020;6.128;2023-08-21T03:40:27;16.30;99.90
21090;DHT22;10703;51.020;6.128;2023-08-21T03:42:53;16.30;99.90
21090;DHT22;10703;51.020;6.128;2023-08-21T03:45:20;16.30;99.90
21090;DHT22;10703;51.020;6.128;2023-08-21T03:47:46;16.20;99.90
21090;DHT22;10703;51.020;6.128;2023-08-21T03:50:13;16.10;99.90
21090;DHT22;10703;51.020;6.128;2023-08-21T03:52:40;16.10;99.90
21090;DHT22;10703;51.020;6.128;2023-08-21T03:55:07;16.10;99.90
21090;DHT22;10703;51.020;6.128;2023-08-21T03:57:33;16.10;99.90
21090;DHT22;10703;51.020;6.128;2023-08-21T04:00:00;16.10;99.90
21090;DHT22;10703;51.020;6.128;2023-08-21T04:02:27;16.20;99.90
21090;DHT22;10703;51.020;6.128;2023-08-21T04:04:53;16.20;99.90
21090;DHT22;10703;51.020;6.128;2023-08-21T04:07:20;16.10;99.90
21090;DHT22;10703;51.020;6.128;2023-08-21T04:09:47;16.10;99.90
21090;DHT22;10703;51.020;6.128;2023-08-21T04:12:13;16.00;99.90
21090;DHT22;10703;51.020;6.128;2023-08-21T04:14:40;15.90;99.90
21090;DHT22;10703;51.020;6.128;2023-08-21T04:17:06;15.90;99.90
21090;DHT22;10703;51.020;6.128;2023-08-21T04:19:33;15.90;99.90
21090;DHT22;10703;51.020;6.128;2023-08-21T04:22:00;15.90;99.90
21090;DHT22;10703;51.020;6.128;2023-08-21T04:24:27;15.80;99.90
21090;DHT22;10703;51.020;6.128;2023-08-21T04:26:53;15.80;99.90
21090;DHT22;10703;51.020;6.128;2023-08-21T04:29:20;15.70;99.90
21090;DHT22;10703;51.020;6.128;2023-08-21T04:31:47;15.70;99.90
21090;DHT22;10703;51.020;6.128;2023-08-21T04:34:13;15.60;99.90
21090;DHT22;10703;51.020;6.128;2023-08-21T04:36:40;15.60;99.90
21090;DHT22;10703;51.020;6.128;2023-08-21T04:39:07;15.60;99.90
21090;DHT22;10703;51.020;6.128;2023-08-21T04:41:34;15.60;99.90
21090;DHT22;10703;51.020;6.128;2023-08-21T04:44:00;15.60;99.90
21090;DHT22;10703;51.020;6.128;2023-08-21T04:46:28;15.60;99.90
21090;DHT22;10703;51.020;6.128;2023-08-21T04:48:54;15.50;99.90
21090;DHT22;10703;51.020;6.128;2023-08-21T04:51:21;15.50;99.90
21090;DHT22;10703;51.020;6.128;2023-08-21T04:53:47;15.50;99.90
21090;DHT22;10703;51.020;6.128;2023-08-21T04:56:14;15.60;99.90
21090;DHT22;10703;51.020;6.128;2023-08-21T04:58:41;15.60;99.90
21090;DHT22;10703;51.020;6.128;2023-08-21T05:01:07;15.60;99.90
21090;DHT22;10703;51.020;6.128;2023-08-21T05:03:35;15.70;99.90
21090;DHT22;10703;51.020;6.128;2023-08-21T05:06:02;15.70;99.90
21090;DHT22;10703;51.020;6.128;2023-08-21T05:08:29;15.70;99.90
21090;DHT22;10703;51.020;6.128;2023-08-21T05:10:57;15.80;99.90
21090;DHT22;10703;51.020;6.128;2023-08-21T05:13:24;15.90;99.90
21090;DHT22;10703;51.020;6.128;2023-08-21T05:15:54;15.90;99.90
21090;DHT22;10703;51.020;6.128;2023-08-21T05:18:22;16.00;99.90
21090;DHT22;10703;51.020;6.128;2023-08-21T05:20:50;16.00;99.90
21090;DHT22;10703;51.020;6.128;2023-08-21T05:23:17;16.10;99.90
21090;DHT22;10703;51.020;6.128;2023-08-21T05:25:45;16.10;99.90
21090;DHT22;10703;51.020;6.128;2023-08-21T05:28:12;16.20;99.90
21090;DHT22;10703;51.020;6.128;2023-08-21T05:30:38;16.20;99.90
21090;DHT22;10703;51.020;6.128;2023-08-21T05:33:06;16.30;99.90
21090;DHT22;10703;51.020;6.128;2023-08-21T05:35:36;16.40;99.90
21090;DHT22;10703;51.020;6.128;2023-08-21T05:38:03;16.50;99.90
21090;DHT22;10703;51.020;6.128;2023-08-21T05:40:30;16.50;99.90
21090;DHT22;10703;51.020;6.128;2023-08-21T05:42:57;16.60;99.90
21090;DHT22;10703;51.020;6.128;2023-08-21T05:45:24;16.80;99.90
21090;DHT22;10703;51.020;6.128;2023-08-21T05:47:51;16.80;99.90
21090;DHT22;10703;51.020;6.128;2023-08-21T05:50:18;16.80;99.90
21090;DHT22;10703;51.020;6.128;2023-08-21T05:52:44;16.90;99.90
21090;DHT22;10703;51.020;6.128;2023-08-21T05:55:11;17.10;99.90
21090;DHT22;10703;51.020;6.128;2023-08-21T05:57:38;17.20;99.90
21090;DHT22;10703;51.020;6.128;2023-08-21T06:00:06;17.30;99.90
21090;DHT22;10703;51.020;6.128;2023-08-21T06:02:35;17.50;99.90
21090;DHT22;10703;51.020;6.128;2023-08-21T06:05:02;17.60;99.90
21090;DHT22;10703;51.020;6.128;2023-08-21T06:07:29;17.70;99.90
21090;DHT22;10703;51.020;6.128;2023-08-21T06:09:56;17.80;99.90
21090;DHT22;10703;51.020;6.128;2023-08-21T06:12:23;17.90;99.90
21090;DHT22;10703;51.020;6.128;2023-08-21T06:14:49;18.00;99.90
21090;DHT22;10703;51.020;6.128;2023-08-21T06:17:16;18.00;99.90
21090;DHT22;10703;51.020;6.128;2023-08-21T06:19:43;18.10;99.90
21090;DHT22;10703;51.020;6.128;2023-08-21T06:22:10;18.30;99.90
21090;DHT22;10703;51.020;6.128;2023-08-21T06:24:36;18.40;99.90
21090;DHT22;10703;51.020;6.128;2023-08-21T06:27:03;18.50;99.90
21090;DHT22;10703;51.020;6.128;2023-08-21T06:29:33;18.60;99.90
21090;DHT22;10703;51.020;6.128;2023-08-21T06:32:00;18.80;99.90
21090;DHT22;10703;51.020;6.128;2023-08-21T06:34:27;18.80;99.90
21090;DHT22;10703;51.020;6.128;2023-08-21T06:36:53;18.80;99.90
21090;DHT22;10703;51.020;6.128;2023-08-21T06:39:20;19.00;99.90
21090;DHT22;10703;51.020;6.128;2023-08-21T06:41:46;19.20;99.90
21090;DHT22;10703;51.020;6.128;2023-08-21T06:44:13;19.10;99.90
21090;DHT22;10703;51.020;6.128;2023-08-21T06:46:42;19.10;99.90
21090;DHT22;10703;51.020;6.128;2023-08-21T06:49:09;19.20;99.90
21090;DHT22;10703;51.020;6.128;2023-08-21T06:51:35;19.40;99.90
21090;DHT22;10703;51.020;6.128;2023-08-21T06:54:02;19.60;99.90
21090;DHT22;10703;51.020;6.128;2023-08-21T06:56:29;19.60;99.90
21090;DHT22;10703;51.020;6.128;2023-08-21T06:58:55;19.60;99.90
21090;DHT22;10703;51.020;6.128;2023-08-21T07:01:22;19.70;99.90
21090;DHT22;10703;51.020;6.128;2023-08-21T07:03:49;20.00;99.90
21090;DHT22;10703;51.020;6.128;2023-08-21T07:06:15;20.10;99.90
21090;DHT22;10703;51.020;6.128;2023-08-21T07:08:42;20.60;99.90
21090;DHT22;10703;51.020;6.128;2023-08-21T07:11:09;21.00;99.90
21090;DHT22;10703;51.020;6.128;2023-08-21T07:13:36;21.60;99.90
21090;DHT22;10703;51.020;6.128;2023-08-21T07:16:03;22.10;99.90
21090;DHT22;10703;51.020;6.128;2023-08-21T07:18:35;22.50;99.90
21090;DHT22;10703;51.020;6.128;2023-08-21T07:21:02;23.10;99.90
21090;DHT22;10703;51.020;6.128;2023-08-21T07:23:38;23.30;99.90
21090;DHT22;10703;51.020;6.128;2023-08-21T07:26:04;24.00;99.90
21090;DHT22;10703;51.020;6.128;2023-08-21T07:28:33;24.70;99.90
21090;DHT22;10703;51.020;6.128;2023-08-21T07:31:01;25.40;99.90
21090;DHT22;10703;51.020;6.128;2023-08-21T07:33:27;25.70;99.90
21090;DHT22;10703;51.020;6.128;2023-08-21T07:36:03;26.00;99.90
21090;DHT22;10703;51.020;6.128;2023-08-21T07:38:30;26.50;99.90
21090;DHT22;10703;51.020;6.128;2023-08-21T07:41:08;26.70;99.90
21090;DHT22;10703;51.020;6.128;2023-08-21T07:43:40;26.70;99.90
21090;DHT22;10703;51.020;6.128;2023-08-21T07:46:08;26.70;99.90
21090;DHT22;10703;51.020;6.128;2023-08-21T07:48:45;26.00;99.90
21090;DHT22;10703;51.020;6.128;2023-08-21T07:51:12;25.60;99.90
21090;DHT22;10703;51.020;6.128;2023-08-21T07:53:39;25.80;99.90
21090;DHT22;10703;51.020;6.128;2023-08-21T07:56:06;26.00;99.90
21090;DHT22;10703;51.020;6.128;2023-08-21T07:58:33;25.90;99.90
21090;DHT22;10703;51.020;6.128;2023-08-21T08:01:00;25.70;99.90
21090;DHT22;10703;51.020;6.128;2023-08-21T08:03:28;26.10;99.90
21090;DHT22;10703;51.020;6.128;2023-08-21T08:05:55;25.90;99.90
21090;DHT22;10703;51.020;6.128;2023-08-21T08:08:22;26.10;99.90
21090;DHT22;10703;51.020;6.128;2023-08-21T08:10:49;26.50;99.90
21090;DHT22;10703;51.020;6.128;2023-08-21T08:13:15;26.50;99.90
21090;DHT22;10703;51.020;6.128;2023-08-21T08:15:42;26.50;99.90
21090;DHT22;10703;51.020;6.128;2023-08-21T08:18:13;25.90;99.90
21090;DHT22;10703;51.020;6.128;2023-08-21T08:20:40;25.40;99.90
21090;DHT22;10703;51.020;6.128;2023-08-21T08:23:07;24.90;99.90
21090;DHT22;10703;51.020;6.128;2023-08-21T08:25:33;25.30;99.90
21090;DHT22;10703;51.020;6.128;2023-08-21T08:28:00;25.60;99.90
21090;DHT22;10703;51.020;6.128;2023-08-21T08:30:27;26.10;99.90
21090;DHT22;10703;51.020;6.128;2023-08-21T08:32:53;26.60;99.90
21090;DHT22;10703;51.020;6.128;2023-08-21T08:35:20;26.70;99.90
21090;DHT22;10703;51.020;6.128;2023-08-21T08:37:47;27.10;99.90
21090;DHT22;10703;51.020;6.128;2023-08-21T08:40:13;27.20;99.90
21090;DHT22;10703;51.020;6.128;2023-08-21T08:42:40;27.50;99.90
21090;DHT22;10703;51.020;6.128;2023-08-21T08:45:07;27.40;99.90
21090;DHT22;10703;51.020;6.128;2023-08-21T08:47:34;27.40;99.90
21090;DHT22;10703;51.020;6.128;2023-08-21T08:50:03;28.00;99.90
21090;DHT22;10703;51.020;6.128;2023-08-21T08:52:34;27.90;99.90
21090;DHT22;10703;51.020;6.128;2023-08-21T08:55:02;28.40;99.90
21090;DHT22;10703;51.020;6.128;2023-08-21T08:57:30;28.60;99.90
21090;DHT22;10703;51.020;6.128;2023-08-21T08:59:56;29.00;99.90
21090;DHT22;10703;51.020;6.128;2023-08-21T09:02:25;28.50;99.90
21090;DHT22;10703;51.020;6.128;2023-08-21T09:04:53;28.90;99.90
21090;DHT22;10703;51.020;6.128;2023-08-21T09:07:20;29.20;99.90
21090;DHT22;10703;51.020;6.128;2023-08-21T09:09:48;29.10;99.90
21090;DHT22;10703;51.020;6.128;2023-08-21T09:12:17;28.90;99.90
21090;DHT22;10703;51.020;6.128;2023-08-21T09:14:44;28.90;99.90
21090;DHT22;10703;51.020;6.128;2023-08-21T09:17:12;29.40;99.90
21090;DHT22;10703;51.020;6.128;2023-08-21T09:19:39;29.70;99.90
21090;DHT22;10703;51.020;6.128;2023-08-21T09:22:16;29.70;99.90
21090;DHT22;10703;51.020;6.128;2023-08-21T09:25:04;29.50;99.90
21090;DHT22;10703;51.020;6.128;2023-08-21T09:27:35;29.80;99.90
21090;DHT22;10703;51.020;6.128;2023-08-21T09:30:08;30.00;99.90
21090;DHT22;10703;51.020;6.128;2023-08-21T09:32:55;30.10;99.90
21090;DHT22;10703;51.020;6.128;2023-08-21T09:35:23;30.80;99.90
21090;DHT22;10703;51.020;6.128;2023-08-21T09:37:50;31.30;99.90
21090;DHT22;10703;51.020;6.128;2023-08-21T09:40:20;31.50;99.50
21090;DHT22;10703;51.020;6.128;2023-08-21T09:42:55;32.00;98.50
21090;DHT22;10703;51.020;6.128;2023-08-21T09:45:27;32.20;98.10
21090;DHT22;10703;51.020;6.128;2023-08-21T09:47:54;32.40;98.60
21090;DHT22;10703;51.020;6.128;2023-08-21T09:50:22;31.90;99.00
21090;DHT22;10703;51.020;6.128;2023-08-21T09:52:49;32.70;98.00
21090;DHT22;10703;51.020;6.128;2023-08-21T09:55:16;33.00;97.40
21090;DHT22;10703;51.020;6.128;2023-08-21T09:57:44;33.50;96.70
21090;DHT22;10703;51.020;6.128;2023-08-21T10:00:11;33.60;97.30
21090;DHT22;10703;51.020;6.128;2023-08-21T10:02:51;33.20;96.80
21090;DHT22;10703;51.020;6.128;2023-08-21T10:05:18;33.60;95.50
21090;DHT22;10703;51.020;6.128;2023-08-21T10:07:49;33.80;95.30
21090;DHT22;10703;51.020;6.128;2023-08-21T10:10:17;33.90;95.40
21090;DHT22;10703;51.020;6.128;2023-08-21T10:12:44;33.50;94.90
21090;DHT22;10703;51.020;6.128;2023-08-21T10:15:11;33.80;94.80
21090;DHT22;10703;51.020;6.128;2023-08-21T10:17:38;33.70;94.30
21090;DHT22;10703;51.020;6.128;2023-08-21T10:20:07;33.80;93.70
21090;DHT22;10703;51.020;6.128;2023-08-21T10:23:01;33.70;93.40
21090;DHT22;10703;51.020;6.128;2023-08-21T10:25:28;33.20;93.50
21090;DHT22;10703;51.020;6.128;2023-08-21T10:27:58;33.40;93.30
21090;DHT22;10703;51.020;6.128;2023-08-21T10:30:30;33.60;93.40
21090;DHT22;10703;51.020;6.128;2023-08-21T10:32:58;33.80;92.50
21090;DHT22;10703;51.020;6.128;2023-08-21T10:35:30;33.70;92.20
21090;DHT22;10703;51.020;6.128;2023-08-21T10:38:08;34.00;92.20
21090;DHT22;10703;51.020;6.128;2023-08-21T10:40:36;34.30;91.80
21090;DHT22;10703;51.020;6.128;2023-08-21T10:43:04;34.80;92.30
21090;DHT22;10703;51.020;6.128;2023-08-21T10:45:31;34.90;91.50
21090;DHT22;10703;51.020;6.128;2023-08-21T10:47:59;35.10;91.30
21090;DHT22;10703;51.020;6.128;2023-08-21T10:50:26;35.40;90.70
21090;DHT22;10703;51.020;6.128;2023-08-21T10:52:53;36.20;90.80
21090;DHT22;10703;51.020;6.128;2023-08-21T10:55:20;36.40;90.10
21090;DHT22;10703;51.020;6.128;2023-08-21T10:57:48;35.70;90.40
21090;DHT22;10703;51.020;6.128;2023-08-21T11:00:17;35.30;90.70
21090;DHT22;10703;51.020;6.128;2023-08-21T11:02:45;35.50;90.40
21090;DHT22;10703;51.020;6.128;2023-08-21T11:05:14;35.60;90.30
21090;DHT22;10703;51.020;6.128;2023-08-21T11:07:42;35.80;90.80
21090;DHT22;10703;51.020;6.128;2023-08-21T11:10:15;35.40;89.90
21090;DHT22;10703;51.020;6.128;2023-08-21T11:12:56;35.70;89.80
21090;DHT22;10703;51.020;6.128;2023-08-21T11:15:25;36.20;90.70
21090;DHT22;10703;51.020;6.128;2023-08-21T11:17:57;36.60;90.00
21090;DHT22;10703;51.020;6.128;2023-08-21T11:20:33;36.40;87.80
21090;DHT22;10703;51.020;6.128;2023-08-21T11:23:03;36.30;89.10
21090;DHT22;10703;51.020;6.128;2023-08-21T11:25:34;35.80;89.30
21090;DHT22;10703;51.020;6.128;2023-08-21T11:28:01;36.10;90.00
21090;DHT22;10703;51.020;6.128;2023-08-21T11:30:31;36.40;89.10
21090;DHT22;10703;51.020;6.128;2023-08-21T11:33:09;36.90;89.90
21090;DHT22;10703;51.020;6.128;2023-08-21T11:35:38;37.50;87.30
21090;DHT22;10703;51.020;6.128;2023-08-21T11:38:05;37.80;87.10
21090;DHT22;10703;51.020;6.128;2023-08-21T11:40:36;38.40;85.80
21090;DHT22;10703;51.020;6.128;2023-08-21T11:43:03;38.40;90.00
21090;DHT22;10703;51.020;6.128;2023-08-21T11:45:32;37.50;88.90
21090;DHT22;10703;51.020;6.128;2023-08-21T11:48:11;36.70;88.30
21090;DHT22;10703;51.020;6.128;2023-08-21T11:50:39;36.40;87.80
21090;DHT22;10703;51.020;6.128;2023-08-21T11:53:05;36.20;87.00
21090;DHT22;10703;51.020;6.128;2023-08-21T11:55:34;36.50;88.00
21090;DHT22;10703;51.020;6.128;2023-08-21T11:58:01;36.30;89.20
21090;DHT22;10703;51.020;6.128;2023-08-21T12:00:29;36.70;89.60
21090;DHT22;10703;51.020;6.128;2023-08-21T12:02:58;37.60;88.10
21090;DHT22;10703;51.020;6.128;2023-08-21T12:05:26;38.00;86.90
21090;DHT22;10703;51.020;6.128;2023-08-21T12:07:54;38.40;86.60
21090;DHT22;10703;51.020;6.128;2023-08-21T12:10:28;38.10;87.30
21090;DHT22;10703;51.020;6.128;2023-08-21T12:12:56;37.80;85.50
21090;DHT22;10703;51.020;6.128;2023-08-21T12:15:23;37.40;85.70
21090;DHT22;10703;51.020;6.128;2023-08-21T12:17:50;37.10;86.00
21090;DHT22;10703;51.020;6.128;2023-08-21T12:20:16;37.30;85.00
21090;DHT22;10703;51.020;6.128;2023-08-21T12:22:43;36.50;86.20
21090;DHT22;10703;51.020;6.128;2023-08-21T12:25:10;37.20;88.30
21090;DHT22;10703;51.020;6.128;2023-08-21T12:27:37;37.60;87.30
21090;DHT22;10703;51.020;6.128;2023-08-21T12:30:05;38.00;84.20
21090;DHT22;10703;51.020;6.128;2023-08-21T12:32:32;37.40;87.10
21090;DHT22;10703;51.020;6.128;2023-08-21T12:34:58;37.00;84.60
21090;DHT22;10703;51.020;6.128;2023-08-21T12:37:25;36.70;86.40
21090;DHT22;10703;51.020;6.128;2023-08-21T12:39:53;36.50;88.00
21090;DHT22;10703;51.020;6.128;2023-08-21T12:42:20;37.00;85.50
21090;DHT22;10703;51.020;6.128;2023-08-21T12:44:46;37.20;84.00
21090;DHT22;10703;51.020;6.128;2023-08-21T12:47:13;37.00;87.00
21090;DHT22;10703;51.020;6.128;2023-08-21T12:49:40;36.70;88.20
21090;DHT22;10703;51.020;6.128;2023-08-21T12:52:06;36.50;86.20
21090;DHT22;10703;51.020;6.128;2023-08-21T12:54:36;36.50;85.00
21090;DHT22;10703;51.020;6.128;2023-08-21T12:57:03;36.10;85.10
21090;DHT22;10703;51.020;6.128;2023-08-21T12:59:30;36.10;89.20
21090;DHT22;10703;51.020;6.128;2023-08-21T13:01:58;36.40;85.70
21090;DHT22;10703;51.020;6.128;2023-08-21T13:04:26;36.80;86.30
21090;DHT22;10703;51.020;6.128;2023-08-21T13:06:53;36.50;88.70
21090;DHT22;10703;51.020;6.128;2023-08-21T13:09:19;35.20;86.40
21090;DHT22;10703;51.020;6.128;2023-08-21T13:11:46;34.60;88.80
21090;DHT22;10703;51.020;6.128;2023-08-21T13:14:13;34.40;90.90
21090;DHT22;10703;51.020;6.128;2023-08-21T13:16:39;34.40;88.30
21090;DHT22;10703;51.020;6.128;2023-08-21T13:19:06;34.60;89.80
21090;DHT22;10703;51.020;6.128;2023-08-21T13:21:33;35.00;90.70
21090;DHT22;10703;51.020;6.128;2023-08-21T13:24:00;36.00;90.00
21090;DHT22;10703;51.020;6.128;2023-08-21T13:26:29;36.60;88.90
21090;DHT22;10703;51.020;6.128;2023-08-21T13:28:57;36.00;88.80
21090;DHT22;10703;51.020;6.128;2023-08-21T13:31:24;36.50;88.50
21090;DHT22;10703;51.020;6.128;2023-08-21T13:33:51;37.10;89.10
21090;DHT22;10703;51.020;6.128;2023-08-21T13:36:18;37.50;85.00
21090;DHT22;10703;51.020;6.128;2023-08-21T13:38:45;38.00;84.10
21090;DHT22;10703;51.020;6.128;2023-08-21T13:41:11;37.10;84.00
21090;DHT22;10703;51.020;6.128;2023-08-21T13:43:38;36.70;86.10
21090;DHT22;10703;51.020;6.128;2023-08-21T13:46:06;35.60;88.40
21090;DHT22;10703;51.020;6.128;2023-08-21T13:48:36;34.90;87.90
21090;DHT22;10703;51.020;6.128;2023-08-21T13:51:02;34.50;89.60
21090;DHT22;10703;51.020;6.128;2023-08-21T13:53:29;34.00;89.10
21090;DHT22;10703;51.020;6.128;2023-08-21T13:55:56;33.80;90.60
21090;DHT22;10703;51.020;6.128;2023-08-21T13:58:22;33.60;90.70
21090;DHT22;10703;51.020;6.128;2023-08-21T14:00:49;34.30;90.00
21090;DHT22;10703;51.020;6.128;2023-08-21T14:03:16;34.70;88.80
21090;DHT22;10703;51.020;6.128;2023-08-21T14:05:42;35.30;89.20
21090;DHT22;10703;51.020;6.128;2023-08-21T14:08:09;35.70;89.50
21090;DHT22;10703;51.020;6.128;2023-08-21T14:10:36;35.70;88.30
21090;DHT22;10703;51.020;6.128;2023-08-21T14:13:03;36.20;87.60
21090;DHT22;10703;51.020;6.128;2023-08-21T14:15:30;37.00;86.00
21090;DHT22;10703;51.020;6.128;2023-08-21T14:17:57;36.80;87.80
21090;DHT22;10703;51.020;6.128;2023-08-21T14:20:23;36.60;87.90
21090;DHT22;10703;51.020;6.128;2023-08-21T14:22:50;36.70;85.80
21090;DHT22;10703;51.020;6.128;2023-08-21T14:25:17;36.70;86.60
21090;DHT22;10703;51.020;6.128;2023-08-21T14:27:44;36.40;84.70
21090;DHT22;10703;51.020;6.128;2023-08-21T14:30:11;35.50;86.30
21090;DHT22;10703;51.020;6.128;2023-08-21T14:32:37;34.60;88.40
21090;DHT22;10703;51.020;6.128;2023-08-21T14:35:05;34.80;89.60
21090;DHT22;10703;51.020;6.128;2023-08-21T14:37:35;35.30;88.70
21090;DHT22;10703;51.020;6.128;2023-08-21T14:40:02;34.70;85.80
21090;DHT22;10703;51.020;6.128;2023-08-21T14:42:34;34.40;87.90
21090;DHT22;10703;51.020;6.128;2023-08-21T14:45:01;34.10;88.90
21090;DHT22;10703;51.020;6.128;2023-08-21T14:47:27;33.70;89.10
21090;DHT22;10703;51.020;6.128;2023-08-21T14:49:54;33.40;90.00
21090;DHT22;10703;51.020;6.128;2023-08-21T14:52:21;33.30;90.00
21090;DHT22;10703;51.020;6.128;2023-08-21T14:54:50;33.50;90.70
21090;DHT22;10703;51.020;6.128;2023-08-21T14:57:17;33.60;88.40
21090;DHT22;10703;51.020;6.128;2023-08-21T14:59:43;33.60;86.90
21090;DHT22;10703;51.020;6.128;2023-08-21T15:02:10;34.80;87.20
21090;DHT22;10703;51.020;6.128;2023-08-21T15:04:37;35.70;84.60
21090;DHT22;10703;51.020;6.128;2023-08-21T15:07:03;36.60;85.60
21090;DHT22;10703;51.020;6.128;2023-08-21T15:09:30;37.10;83.00
21090;DHT22;10703;51.020;6.128;2023-08-21T15:11:57;37.80;84.40
21090;DHT22;10703;51.020;6.128;2023-08-21T15:14:23;38.10;83.10
21090;DHT22;10703;51.020;6.128;2023-08-21T15:16:50;37.80;82.60
21090;DHT22;10703;51.020;6.128;2023-08-21T15:19:22;38.00;84.50
21090;DHT22;10703;51.020;6.128;2023-08-21T15:21:49;37.20;83.00
21090;DHT22;10703;51.020;6.128;2023-08-21T15:24:15;37.20;82.30
21090;DHT22;10703;51.020;6.128;2023-08-21T15:26:42;37.00;84.10
21090;DHT22;10703;51.020;6.128;2023-08-21T15:29:08;35.90;84.20
21090;DHT22;10703;51.020;6.128;2023-08-21T15:31:36;36.00;84.70
21090;DHT22;10703;51.020;6.128;2023-08-21T15:34:02;36.60;85.10
21090;DHT22;10703;51.020;6.128;2023-08-21T15:36:32;37.10;83.50